Photo de Laille
Rennes
Brume, partiellement nuageux
Metar : 2018/05/20 23:00 LFRN 202300Z AUTO 30005KT 5000 BR NSC 11/10 Q1016 NOSIG
Couverture nuageuse :
Pression de 30 inHg (1016 hPa)
Humidité : 94%
Température : 52°F (11°C)
Vent de WNW at 6 mph (9 km/h)
Visibilité : 3 miles (5 km)
Nantes
Ciel dégagé
Metar : 2018/05/20 23:00 LFRS 202300Z AUTO 03003KT CAVOK 14/09 Q1014 NOSIG
Couverture nuageuse :
Traduc : Partly cloudy 700 ft
Pression de 29.94 inHg (1014 hPa)
Humidité : 72%
Température : 57°F (14°C)
Point de rosée : 48°F (9°C)
Vent de NNE at 3 mph (6 km/h)
Visibilité : greater than 7 miles (10 km)
Lannion
Brume, partiellement nuageux
Metar : 2018/05/20 23:00 LFRO 202300Z AUTO VRB03KT 3900 BR NSC 10/09 Q1017
Couverture nuageuse :
Traduc : Partly cloudy 700 ft
Pression de 30.03 inHg (1017 hPa)
Humidité : 94%
Température : 50°F (10°C)
Point de rosée : 48°F (9°C)
Vent de varies at 3 mph (6 km/h)
Visibilité : 2 miles (4 km)
Dinard
Brume, partiellement nuageux
Metar : 2018/05/20 23:00 LFRD 202300Z AUTO 04004KT 4800 BR NSC 11/10 Q1016 NOSIG
Couverture nuageuse :
Traduc : Partly cloudy 700 ft
Pression de 30 inHg (1016 hPa)
Humidité : 94%
Température : 52°F (11°C)
Point de rosée : 50°F (10°C)
Vent de NE at 5 mph (7 km/h)
Visibilité : 3 miles (5 km)
Brest
unable to load LFRB data RC=404 Not Found
Metar :
Couverture nuageuse :
Traduc : Partly cloudy 700 ft
Pression de
Humidité :
Température :
Point de rosée :
Vent de
Visibilité :
Quimper
Ciel dégagé
Metar : 2018/05/20 23:00 LFRQ 202300Z AUTO 04005KT CAVOK 12/07 Q1016
Couverture nuageuse :
Traduc : Partly cloudy 700 ft
Pression de 30 inHg (1016 hPa)
Humidité : 72%
Température : 54°F (12°C)
Point de rosée : 45°F (7°C)
Vent de NE at 6 mph (9 km/h)
Visibilité : greater than 7 miles (10 km)
St Nazaire
Ciel dégagé
Metar : 2018/05/20 23:00 LFRZ 202300Z AUTO 02005KT CAVOK 14/10 Q1015 NOSIG
Couverture nuageuse :
Traduc : Partly cloudy 700 ft
Pression de 29.97 inHg (1015 hPa)
Humidité : 77%
Température : 57°F (14°C)
Point de rosée : 50°F (10°C)
Vent de NNE at 6 mph (9 km/h)
Visibilité : greater than 7 miles (10 km)
St Brieuc
Brume, partiellement nuageux
Metar : 2018/05/20 21:00 LFRT 202100Z AUTO 35003KT 3700 BR NSC 10/10 Q1017
Couverture nuageuse :
Traduc : Partly cloudy 700 ft
Pression de 30.03 inHg (1017 hPa)
Humidité : 100%
Température : 50°F (10°C)
Point de rosée : 50°F (10°C)
Vent de N at 3 mph (6 km/h)
Visibilité : 2 miles (4 km)
Lorient
Ciel dégagé
Metar : 2018/05/20 23:00 LFRH 202300Z AUTO 02006KT CAVOK 11/07 Q1016 NOSIG
Couverture nuageuse :
Traduc : Partly cloudy 700 ft
Pression de 30 inHg (1016 hPa)
Humidité : 77%
Température : 52°F (11°C)
Point de rosée : 45°F (7°C)
Vent de NNE at 7 mph (11 km/h)
Visibilité : greater than 7 miles (10 km)
Vannes-Meucon
unable to load LFRV data RC=404 Not Found
Metar :
Couverture nuageuse :
Traduc : Partly cloudy 700 ft
Pression de
Humidité :
Température :
Point de rosée :
Vent de
Visibilité :

 


   Weather Underground PWS IBRETAGN39      Weather Underground PWS IBRETAGN39Retour Météo-Laillé adhérent de Météo-Bretagne et d'Infoclimat. Données mises à jour en temps réel via Météolink Climatologie réalisée sous Wswin et GraphWeather.

Affichage prévisions météo de WeatherUnderground via script PHP de Saratoga.

Copyright 2012-2018